Currently 45°F in Pinon Hills, California, USA
45°F
51°F / 41°F
8 mph NW
0.02"
Wednesday, May 22, 2019 8:26 PM PDT

Pinon Hills, California Weather Summary
Last 36 Hours

Temperature Winds Hourly Humidity Dewpoint
Time Report Norm Report Norm Max Gusts Precip. Rpt. Norm Rpt. Norm Pressure
1Wed 08:26 PM  44.8°F  61°F  8 mph NW  4 mph  13 mph  0.00"  74%  44%  37°F  38°F  29.73"
Wed 08:00 PM  45.6°F  63°F  8 mph NW  5 mph  20 mph  0.00"  72%  41%  37°F  38°F  29.71"
Wed 07:00 PM  48.8°F  67°F  8 mph NW  7 mph  20 mph  0.00"  65%  35%  37°F  37°F  29.70"
Wed 06:00 PM  49.5°F  69°F  8 mph NW  7 mph  13 mph  0.00"  63%  32%  37°F  37°F  29.69"
Wed 05:00 PM  49.3°F  71°F  6 mph NW  7 mph  14 mph  0.00"  65%  30%  37°F  36°F  29.68"
Wed 04:00 PM  46.8°F  72°F  6 mph W  7 mph  15 mph  0.00"  70%  28%  37°F  36°F  29.69"
Wed 03:00 PM  43.6°F  73°F  8 mph W  6 mph  15 mph  0.00"  89%  27%  40°F  36°F  29.70"
Wed 02:00 PM  42.1°F  72°F  6 mph S  5 mph  13 mph  0.02"  96%  28%  41°F  36°F  29.71"
Wed 01:00 PM  45.7°F  71°F  6 mph W  5 mph  14 mph  0.00"  81%  29%  40°F  36°F  29.69"
Wed 12:00 PM  49.0°F  69°F  9 mph NW  5 mph  13 mph  0.00"  59%  32%  35°F  37°F  29.68"
2Wed 11:15 AM  50.9°F  68°F  calm  5 mph  10 mph  ----  56%  34%  35°F  37°F  29.68"
Wed 11:00 AM  48.0°F  67°F  3 mph SW  5 mph  13 mph  0.00"  60%  35%  34°F  37°F  29.68"
Wed 10:00 AM  48.0°F  65°F  7 mph W  4 mph  13 mph  0.00"  63%  39%  35°F  39°F  29.67"
Wed 09:00 AM  47.1°F  63°F  7 mph W  4 mph  13 mph  0.00"  63%  43%  35°F  39°F  29.67"
Wed 08:00 AM  43.7°F  60°F  5 mph W  4 mph  14 mph  0.00"  69%  47%  34°F  39°F  29.68"
Wed 07:00 AM  42.8°F  56°F  7 mph NW  2 mph  19 mph  0.00"  70%  52%  33°F  38°F  29.68"
3Wed 06:00 AM  40.5°F  52°F  12 mph W  2 mph  16 mph  0.00"  72%  55%  32°F  35°F  29.66"
Wed 05:00 AM  42.1°F  52°F  11 mph NW  3 mph  19 mph  0.00"  70%  54%  32°F  36°F  29.66"
Wed 04:00 AM  42.2°F  53°F  7 mph W  3 mph  17 mph  0.00"  70%  53%  33°F  36°F  29.66"
Wed 03:00 AM  42.7°F  54°F  8 mph W  3 mph  18 mph  0.00"  69%  53%  33°F  36°F  29.68"
Wed 02:00 AM  42.4°F  54°F  9 mph W  3 mph  16 mph  0.00"  71%  52%  33°F  36°F  29.69"
Wed 01:00 AM  43.4°F  55°F  5 mph NW  3 mph  16 mph  0.00"  68%  50%  33°F  36°F  29.71"
Wed 12:00 AM  44.3°F  56°F  3 mph NW  3 mph  14 mph  0.00"  70%  49%  35°F  36°F  29.71"
Tue 11:00 PM  45.6°F  57°F  6 mph W  3 mph  23 mph  0.00"  68%  50%  35°F  38°F  29.72"
Tue 10:00 PM  46.0°F  58°F  12 mph NW  3 mph  24 mph  0.00"  68%  48%  35°F  38°F  29.73"
Tue 09:00 PM  46.6°F  59°F  11 mph W  3 mph  18 mph  0.00"  66%  46%  35°F  38°F  29.72"
Tue 08:00 PM  47.0°F  62°F  9 mph NW  5 mph  23 mph  0.00"  69%  43%  37°F  38°F  29.72"
Tue 07:00 PM  49.7°F  66°F  11 mph NW  7 mph  25 mph  0.00"  62%  37%  37°F  38°F  29.71"
Tue 06:00 PM  50.9°F  69°F  11 mph W  7 mph  28 mph  0.00"  66%  33%  39°F  37°F  29.72"
Tue 05:00 PM  53.0°F  71°F  10 mph W  7 mph  28 mph  0.00"  66%  30%  41°F  36°F  29.72"
Tue 04:00 PM  57.6°F  72°F  15 mph S  7 mph  26 mph  0.00"  48%  29%  37°F  36°F  29.73"
Tue 03:00 PM  57.9°F  72°F  12 mph S  7 mph  26 mph  0.00"  47%  28%  37°F  36°F  29.73"
Tue 02:00 PM  58.5°F  71°F  4 mph NW  6 mph  23 mph  0.00"  49%  28%  39°F  36°F  29.75"
Tue 01:00 PM  58.8°F  70°F  calm  5 mph  20 mph  0.00"  47%  30%  38°F  36°F  29.76"
Tue 12:00 PM  55.6°F  69°F  11 mph SW  6 mph  21 mph  0.00"  51%  33%  37°F  37°F  29.79"
Tue 11:00 AM  53.4°F  67°F  13 mph S  5 mph  25 mph  0.00"  56%  35%  38°F  38°F  29.80"
Tue 10:00 AM  52.4°F  65°F  11 mph W  5 mph  22 mph  0.00"  58%  40%  37°F  39°F  29.80"
Tue 09:00 AM  49.2°F  62°F  11 mph NW  5 mph  17 mph  0.00"  71%  44%  40°F  39°F  29.81"

  1. Current weather data. No green row appears if the current weather data is also the high or low for the current day.
  2. High temperature for the current day.
  3. Low temperature for the current day.

The Pinon Hills, California weather pages are a service of WeatherCurrents.
Copyright ©2019  WeatherCurrents. All rights reserved. - Submit questions and comments - Privacy Policy

This page automatically refreshes every 10 minutes.